createdAt,value
2023-05-14T00:01:19.008Z,78.93
2023-05-14T00:04:20.889Z,78.84
2023-05-14T00:07:22.719Z,79.13
2023-05-14T00:10:24.857Z,78.14
2023-05-14T00:13:26.955Z,78.07
2023-05-14T00:16:28.841Z,78.08
2023-05-14T00:19:30.724Z,78.72
2023-05-14T00:22:33.348Z,79.45
2023-05-14T00:25:35.778Z,79.02
2023-05-14T00:28:37.650Z,80.49
2023-05-14T00:31:39.476Z,80.04
2023-05-14T00:34:41.498Z,78.62
2023-05-14T00:37:43.276Z,78.40
2023-05-14T00:40:51.200Z,78.60
2023-05-14T00:43:53.029Z,78.04
2023-05-14T00:46:55.034Z,78.27
2023-05-14T00:49:57.064Z,78.88
2023-05-14T00:52:59.050Z,79.48
2023-05-14T00:56:00.936Z,80.88
2023-05-14T00:59:02.789Z,81.65
2023-05-14T01:02:04.817Z,82.17
2023-05-14T01:05:08.093Z,80.67
2023-05-14T01:08:24.300Z,79.49
2023-05-14T01:11:29.227Z,79.63
2023-05-14T01:14:48.981Z,80.63
2023-05-14T01:18:02.221Z,82.42
2023-05-14T01:21:04.290Z,80.26
2023-05-14T01:24:06.852Z,79.64
2023-05-14T01:27:17.744Z,80.23
2023-05-14T01:30:22.192Z,81.25
2023-05-14T01:33:27.626Z,81.52
2023-05-14T01:36:30.164Z,79.87
2023-05-14T01:39:32.985Z,79.78
2023-05-14T01:42:35.479Z,80.58
2023-05-14T01:45:37.901Z,80.47
2023-05-14T01:48:41.428Z,80.79
2023-05-14T01:51:43.320Z,81.30
2023-05-14T01:54:45.110Z,81.98
2023-05-14T01:57:46.944Z,82.33
2023-05-14T02:00:49.258Z,81.12
2023-05-14T02:03:51.323Z,81.26
2023-05-14T02:06:53.219Z,81.62
2023-05-14T02:09:55.011Z,83.08
2023-05-14T02:12:56.807Z,80.30
2023-05-14T02:15:58.815Z,80.86
2023-05-14T02:19:00.779Z,80.77
2023-05-14T02:22:02.659Z,80.03
2023-05-14T02:25:04.711Z,80.16
2023-05-14T02:28:06.574Z,81.91
2023-05-14T02:31:08.467Z,83.46
2023-05-14T02:34:10.497Z,80.50
2023-05-14T02:37:12.354Z,82.87
2023-05-14T02:40:14.644Z,83.97
2023-05-14T02:43:16.506Z,80.76
2023-05-14T02:46:18.478Z,81.53
2023-05-14T02:49:20.377Z,83.66
2023-05-14T02:52:22.304Z,83.80
2023-05-14T02:55:26.455Z,83.50
2023-05-14T02:58:28.594Z,83.17
2023-05-14T03:01:30.721Z,82.73
2023-05-14T03:04:32.882Z,83.04
2023-05-14T03:07:34.630Z,82.56
2023-05-14T03:10:37.114Z,82.80
2023-05-14T03:13:38.948Z,82.70
2023-05-14T03:16:42.381Z,82.46
2023-05-14T03:19:44.429Z,82.67
2023-05-14T03:22:46.401Z,82.90
2023-05-14T03:25:48.300Z,82.12
2023-05-14T03:28:50.895Z,82.21
2023-05-14T03:31:53.480Z,81.86
2023-05-14T03:34:55.723Z,81.91
2023-05-14T03:37:59.263Z,82.12
2023-05-14T03:41:01.119Z,82.21
2023-05-14T03:44:02.995Z,81.57
2023-05-14T03:47:05.290Z,81.96
2023-05-14T03:50:08.000Z,81.38
2023-05-14T03:53:09.960Z,81.63
2023-05-14T03:56:11.760Z,81.79
2023-05-14T03:59:13.547Z,81.81
2023-05-14T04:02:15.655Z,80.72
2023-05-14T04:05:17.460Z,80.41
2023-05-14T04:08:19.344Z,77.74
2023-05-14T04:11:21.650Z,77.46
2023-05-14T04:14:23.532Z,78.36
2023-05-14T04:17:25.963Z,77.76
2023-05-14T04:20:28.058Z,75.44
2023-05-14T04:23:31.809Z,72.52
2023-05-14T04:26:33.604Z,68.85
2023-05-14T04:29:35.379Z,67.17
2023-05-14T04:32:37.969Z,64.10
2023-05-14T04:35:39.898Z,63.14
2023-05-14T04:38:42.153Z,61.51
2023-05-14T04:41:43.990Z,60.26
2023-05-14T04:44:46.392Z,58.96
2023-05-14T04:47:48.488Z,56.04
2023-05-14T04:50:50.344Z,55.90
2023-05-14T04:53:52.277Z,59.22
2023-05-14T04:56:55.912Z,58.64
2023-05-14T04:59:57.729Z,58.06
2023-05-14T05:02:59.643Z,59.72
2023-05-14T05:06:01.697Z,56.26
2023-05-14T05:09:03.702Z,54.16
2023-05-14T05:12:06.404Z,53.57
2023-05-14T05:15:11.144Z,55.25
2023-05-14T05:18:13.234Z,55.55
2023-05-14T05:21:15.049Z,56.01
2023-05-14T05:24:16.949Z,57.39
2023-05-14T05:27:18.822Z,57.27
2023-05-14T05:30:20.784Z,59.80
2023-05-14T05:33:22.997Z,59.38
2023-05-14T05:36:24.903Z,59.50
2023-05-14T05:39:26.690Z,57.29
2023-05-14T05:42:28.737Z,58.20
2023-05-14T05:45:30.671Z,57.48
2023-05-14T05:48:32.579Z,55.10
2023-05-14T05:51:34.482Z,56.28
2023-05-14T05:54:36.433Z,55.47
2023-05-14T05:57:38.295Z,55.84
2023-05-14T06:00:40.082Z,56.12
2023-05-14T06:03:41.949Z,55.21
2023-05-14T06:06:43.783Z,56.51
2023-05-14T06:09:45.708Z,57.21
2023-05-14T06:12:47.601Z,56.14
2023-05-14T06:15:49.415Z,56.57
2023-05-14T06:18:52.782Z,56.59
2023-05-14T06:21:54.737Z,56.53
2023-05-14T06:24:56.613Z,54.37
2023-05-14T06:27:58.574Z,53.90
2023-05-14T06:31:00.478Z,53.67
2023-05-14T06:34:02.335Z,51.46
2023-05-14T06:37:04.347Z,51.00
2023-05-14T06:40:06.819Z,51.72
2023-05-14T06:43:08.703Z,50.08
2023-05-14T06:46:10.544Z,52.17
2023-05-14T06:49:12.535Z,53.49
2023-05-14T06:52:14.384Z,50.87
2023-05-14T06:55:16.244Z,51.81
2023-05-14T06:58:18.154Z,53.24
2023-05-14T07:01:20.153Z,51.03
2023-05-14T07:04:22.079Z,52.22
2023-05-14T07:07:23.983Z,54.08
2023-05-14T07:10:26.433Z,52.95
2023-05-14T07:13:28.896Z,54.98
2023-05-14T07:16:31.152Z,55.26
2023-05-14T07:19:33.118Z,53.52
2023-05-14T07:22:35.011Z,52.24
2023-05-14T07:25:36.914Z,54.98
2023-05-14T07:28:38.765Z,52.36
2023-05-14T07:31:40.792Z,54.88
2023-05-14T07:34:42.881Z,53.51
2023-05-14T07:37:44.838Z,52.53
2023-05-14T07:40:47.206Z,52.45
2023-05-14T07:43:49.068Z,54.15
2023-05-14T07:46:51.076Z,54.41
2023-05-14T07:49:56.415Z,54.36
2023-05-14T07:52:58.256Z,55.07
2023-05-14T07:56:00.596Z,53.76
2023-05-14T07:59:02.773Z,54.83
2023-05-14T08:02:04.978Z,55.06
2023-05-14T08:05:07.357Z,54.12
2023-05-14T08:08:09.144Z,55.65
2023-05-14T08:11:11.128Z,56.10
2023-05-14T08:14:12.976Z,55.23
2023-05-14T08:17:15.053Z,54.23
2023-05-14T08:20:17.069Z,55.96
2023-05-14T08:23:19.026Z,54.73
2023-05-14T08:26:21.969Z,55.87
2023-05-14T08:29:23.806Z,55.05
2023-05-14T08:32:25.711Z,55.35
2023-05-14T08:35:27.593Z,52.36
2023-05-14T08:38:29.409Z,56.21
2023-05-14T08:41:32.126Z,54.06
2023-05-14T08:44:43.915Z,54.80
2023-05-14T08:47:51.616Z,54.46
2023-05-14T08:50:53.665Z,53.16
2023-05-14T08:53:56.107Z,52.34
2023-05-14T08:56:58.954Z,50.82
2023-05-14T09:00:01.667Z,51.99
2023-05-14T09:03:05.547Z,52.91
2023-05-14T09:06:08.207Z,50.92
2023-05-14T09:09:11.408Z,51.32
2023-05-14T09:12:13.356Z,50.62
2023-05-14T09:15:15.441Z,50.70
2023-05-14T09:18:17.568Z,50.00
2023-05-14T09:21:20.156Z,46.92
2023-05-14T09:24:24.472Z,45.68
2023-05-14T09:27:29.565Z,44.79
2023-05-14T09:30:31.648Z,45.40
2023-05-14T09:33:33.521Z,44.01
2023-05-14T09:36:35.579Z,42.60
2023-05-14T09:39:38.676Z,42.02
2023-05-14T09:42:41.550Z,40.46
2023-05-14T09:45:43.557Z,40.24
2023-05-14T09:48:46.510Z,43.08
2023-05-14T09:51:49.201Z,43.82
2023-05-14T09:54:52.626Z,41.96
2023-05-14T09:57:54.535Z,36.97
2023-05-14T10:00:57.738Z,36.67
2023-05-14T10:04:00.140Z,40.03
2023-05-14T10:07:03.059Z,41.13
2023-05-14T10:10:08.735Z,41.73
2023-05-14T10:13:15.656Z,45.47
2023-05-14T10:16:24.351Z,45.50
2023-05-14T10:19:26.834Z,48.93
2023-05-14T10:22:34.053Z,49.56
2023-05-14T10:25:36.942Z,49.13
2023-05-14T10:28:39.138Z,48.83
2023-05-14T10:31:51.630Z,48.62
2023-05-14T10:34:54.032Z,48.79
2023-05-14T10:37:56.891Z,48.71
2023-05-14T10:41:04.292Z,50.15
2023-05-14T10:44:10.177Z,50.74
2023-05-14T10:47:12.071Z,48.97
2023-05-14T10:50:17.645Z,49.34
2023-05-14T10:53:20.395Z,48.37
2023-05-14T10:56:22.376Z,48.41
2023-05-14T10:59:27.684Z,49.66
2023-05-14T11:02:32.670Z,49.73
2023-05-14T11:05:37.614Z,47.71
2023-05-14T11:08:39.916Z,48.22
2023-05-14T11:11:42.029Z,46.80
2023-05-14T11:14:43.850Z,48.06
2023-05-14T11:17:47.038Z,48.43
2023-05-14T11:20:49.028Z,48.48
2023-05-14T11:23:51.016Z,49.88
2023-05-14T11:26:55.730Z,48.41
2023-05-14T11:29:58.180Z,48.77
2023-05-14T11:33:02.045Z,48.58
2023-05-14T11:36:04.555Z,50.55
2023-05-14T11:39:07.946Z,48.30
2023-05-14T11:42:12.561Z,47.21
2023-05-14T11:45:25.984Z,48.29
2023-05-14T11:48:27.829Z,48.03
2023-05-14T11:51:29.681Z,50.22
2023-05-14T11:54:33.180Z,47.87
2023-05-14T11:57:35.413Z,48.14
2023-05-14T12:00:38.447Z,49.80
2023-05-14T12:03:40.750Z,49.75
2023-05-14T12:06:42.742Z,49.52
2023-05-14T12:09:50.116Z,51.67
2023-05-14T12:12:52.047Z,51.16
2023-05-14T12:15:56.603Z,51.02
2023-05-14T12:19:01.902Z,48.93
2023-05-14T12:22:03.784Z,49.51
2023-05-14T12:25:12.556Z,49.43
2023-05-14T12:28:15.928Z,49.91
2023-05-14T12:31:17.812Z,50.36
2023-05-14T12:34:19.629Z,52.15
2023-05-14T12:37:21.556Z,51.39
2023-05-14T12:40:26.568Z,51.78
2023-05-14T12:43:31.567Z,51.53
2023-05-14T12:46:34.330Z,54.56
2023-05-14T12:49:36.374Z,52.09
2023-05-14T12:52:39.975Z,52.01
2023-05-14T12:55:42.285Z,52.77
2023-05-14T12:58:44.137Z,52.83
2023-05-14T13:01:46.059Z,51.25
2023-05-14T13:04:48.054Z,52.31
2023-05-14T13:07:50.362Z,52.53
2023-05-14T13:10:53.592Z,52.57
2023-05-14T13:13:55.841Z,53.43
2023-05-14T13:16:59.474Z,55.09
2023-05-14T13:20:01.751Z,54.58
2023-05-14T13:23:03.658Z,55.38
2023-05-14T13:26:05.835Z,58.24
2023-05-14T13:29:07.721Z,54.38
2023-05-14T13:33:06.831Z,56.52
2023-05-14T13:36:26.037Z,55.50
2023-05-14T13:39:30.613Z,59.94
2023-05-14T13:42:32.651Z,54.68
2023-05-14T13:45:35.005Z,54.56
2023-05-14T13:48:37.550Z,55.03
2023-05-14T13:51:39.616Z,57.99
2023-05-14T13:54:41.583Z,54.26
2023-05-14T13:57:43.623Z,53.70
2023-05-14T14:00:50.553Z,53.14
2023-05-14T14:03:52.990Z,55.85
2023-05-14T14:06:56.106Z,56.66
2023-05-14T14:10:04.759Z,57.86
2023-05-14T14:13:06.949Z,57.52
2023-05-14T14:16:27.979Z,59.13
2023-05-14T14:19:31.799Z,59.76
2023-05-14T14:22:33.864Z,62.93
2023-05-14T14:25:35.884Z,63.60
2023-05-14T14:28:55.058Z,64.02
2023-05-14T14:31:57.504Z,65.67
2023-05-14T14:35:02.023Z,64.82
2023-05-14T14:38:06.431Z,66.69
2023-05-14T14:41:10.569Z,69.57
2023-05-14T14:44:12.934Z,70.60
2023-05-14T14:47:17.082Z,70.59
2023-05-14T14:50:19.186Z,72.16
